sensor_id;sensor_type;location;lat;lon;timestamp;P1;durP1;ratioP1;P2;durP2;ratioP2
15915;SDS011;8057;47.830;-3.870;2023-05-17T00:03:50;1.80;;;1.30;;
15915;SDS011;8057;47.830;-3.870;2023-05-17T00:08:02;3.60;;;1.40;;
15915;SDS011;8057;47.830;-3.870;2023-05-17T00:12:11;3.03;;;1.13;;
15915;SDS011;8057;47.830;-3.870;2023-05-17T00:16:22;3.43;;;1.37;;
15915;SDS011;8057;47.830;-3.870;2023-05-17T00:20:31;3.20;;;1.23;;
15915;SDS011;8057;47.830;-3.870;2023-05-17T00:24:40;2.27;;;1.40;;
15915;SDS011;8057;47.830;-3.870;2023-05-17T00:28:49;2.03;;;1.10;;
15915;SDS011;8057;47.830;-3.870;2023-05-17T00:33:00;4.60;;;1.53;;
15915;SDS011;8057;47.830;-3.870;2023-05-17T00:37:09;2.27;;;1.00;;
15915;SDS011;8057;47.830;-3.870;2023-05-17T00:41:18;2.97;;;1.27;;
15915;SDS011;8057;47.830;-3.870;2023-05-17T00:45:27;2.43;;;1.47;;
15915;SDS011;8057;47.830;-3.870;2023-05-17T00:49:37;3.43;;;1.30;;
15915;SDS011;8057;47.830;-3.870;2023-05-17T00:53:47;2.80;;;1.47;;
15915;SDS011;8057;47.830;-3.870;2023-05-17T00:57:56;2.33;;;1.20;;
15915;SDS011;8057;47.830;-3.870;2023-05-17T01:02:05;1.77;;;1.33;;
15915;SDS011;8057;47.830;-3.870;2023-05-17T01:06:16;2.70;;;1.27;;
15915;SDS011;8057;47.830;-3.870;2023-05-17T01:10:27;2.80;;;1.33;;
15915;SDS011;8057;47.830;-3.870;2023-05-17T01:14:45;2.37;;;1.23;;
15915;SDS011;8057;47.830;-3.870;2023-05-17T01:19:04;1.13;;;1.00;;
15915;SDS011;8057;47.830;-3.870;2023-05-17T01:23:26;2.17;;;1.20;;
15915;SDS011;8057;47.830;-3.870;2023-05-17T01:27:44;2.33;;;1.20;;
15915;SDS011;8057;47.830;-3.870;2023-05-17T01:31:57;3.13;;;1.40;;
15915;SDS011;8057;47.830;-3.870;2023-05-17T01:36:09;2.43;;;1.33;;
15915;SDS011;8057;47.830;-3.870;2023-05-17T01:40:18;2.47;;;1.40;;
15915;SDS011;8057;47.830;-3.870;2023-05-17T01:44:31;1.63;;;1.03;;
15915;SDS011;8057;47.830;-3.870;2023-05-17T01:48:47;2.50;;;1.13;;
15915;SDS011;8057;47.830;-3.870;2023-05-17T01:53:02;2.40;;;1.37;;
15915;SDS011;8057;47.830;-3.870;2023-05-17T01:57:16;2.40;;;1.10;;
15915;SDS011;8057;47.830;-3.870;2023-05-17T02:01:33;1.27;;;1.17;;
15915;SDS011;8057;47.830;-3.870;2023-05-17T02:05:43;2.80;;;1.63;;
15915;SDS011;8057;47.830;-3.870;2023-05-17T02:09:52;2.30;;;1.37;;
15915;SDS011;8057;47.830;-3.870;2023-05-17T02:14:01;2.20;;;1.30;;
15915;SDS011;8057;47.830;-3.870;2023-05-17T02:18:11;2.27;;;1.13;;
15915;SDS011;8057;47.830;-3.870;2023-05-17T02:22:21;1.63;;;1.30;;
15915;SDS011;8057;47.830;-3.870;2023-05-17T02:26:30;1.80;;;1.30;;
15915;SDS011;8057;47.830;-3.870;2023-05-17T02:30:39;3.63;;;1.40;;
15915;SDS011;8057;47.830;-3.870;2023-05-17T02:34:50;1.60;;;1.03;;
15915;SDS011;8057;47.830;-3.870;2023-05-17T02:38:59;1.60;;;1.20;;
15915;SDS011;8057;47.830;-3.870;2023-05-17T02:43:08;1.30;;;1.07;;
15915;SDS011;8057;47.830;-3.870;2023-05-17T02:47:17;1.87;;;1.23;;
15915;SDS011;8057;47.830;-3.870;2023-05-17T02:51:28;1.50;;;1.07;;
15915;SDS011;8057;47.830;-3.870;2023-05-17T02:55:37;3.17;;;1.70;;
15915;SDS011;8057;47.830;-3.870;2023-05-17T02:59:46;2.40;;;1.43;;
15915;SDS011;8057;47.830;-3.870;2023-05-17T03:03:56;1.47;;;1.30;;
15915;SDS011;8057;47.830;-3.870;2023-05-17T03:08:06;3.33;;;1.70;;
15915;SDS011;8057;47.830;-3.870;2023-05-17T03:12:16;1.87;;;1.57;;
15915;SDS011;8057;47.830;-3.870;2023-05-17T03:16:26;4.73;;;1.80;;
15915;SDS011;8057;47.830;-3.870;2023-05-17T03:20:36;5.50;;;1.80;;
15915;SDS011;8057;47.830;-3.870;2023-05-17T03:24:46;3.37;;;1.57;;
15915;SDS011;8057;47.830;-3.870;2023-05-17T03:28:55;3.03;;;1.93;;
15915;SDS011;8057;47.830;-3.870;2023-05-17T03:33:04;3.83;;;1.90;;
15915;SDS011;8057;47.830;-3.870;2023-05-17T03:37:13;2.43;;;1.80;;
15915;SDS011;8057;47.830;-3.870;2023-05-17T03:41:24;4.60;;;2.27;;
15915;SDS011;8057;47.830;-3.870;2023-05-17T03:45:33;4.30;;;2.33;;
15915;SDS011;8057;47.830;-3.870;2023-05-17T03:49:42;3.67;;;2.17;;
15915;SDS011;8057;47.830;-3.870;2023-05-17T03:53:57;5.10;;;2.50;;
15915;SDS011;8057;47.830;-3.870;2023-05-17T03:58:09;3.20;;;2.27;;
15915;SDS011;8057;47.830;-3.870;2023-05-17T04:02:18;5.03;;;2.23;;
15915;SDS011;8057;47.830;-3.870;2023-05-17T04:06:27;3.87;;;1.80;;
15915;SDS011;8057;47.830;-3.870;2023-05-17T04:10:36;4.30;;;2.50;;
15915;SDS011;8057;47.830;-3.870;2023-05-17T04:14:49;3.20;;;2.10;;
15915;SDS011;8057;47.830;-3.870;2023-05-17T04:18:58;4.07;;;2.50;;
15915;SDS011;8057;47.830;-3.870;2023-05-17T04:23:08;5.37;;;2.53;;
15915;SDS011;8057;47.830;-3.870;2023-05-17T04:27:17;4.03;;;2.50;;
15915;SDS011;8057;47.830;-3.870;2023-05-17T04:31:30;5.70;;;2.60;;
15915;SDS011;8057;47.830;-3.870;2023-05-17T04:35:40;4.10;;;2.67;;
15915;SDS011;8057;47.830;-3.870;2023-05-17T04:39:50;4.03;;;2.53;;
15915;SDS011;8057;47.830;-3.870;2023-05-17T04:43:59;4.03;;;2.90;;
15915;SDS011;8057;47.830;-3.870;2023-05-17T04:48:10;5.53;;;2.70;;
15915;SDS011;8057;47.830;-3.870;2023-05-17T04:52:19;7.03;;;3.10;;
15915;SDS011;8057;47.830;-3.870;2023-05-17T04:56:28;4.53;;;3.17;;
15915;SDS011;8057;47.830;-3.870;2023-05-17T05:00:38;5.77;;;2.93;;
15915;SDS011;8057;47.830;-3.870;2023-05-17T05:04:48;5.63;;;3.00;;
15915;SDS011;8057;47.830;-3.870;2023-05-17T05:08:58;5.87;;;2.87;;
15915;SDS011;8057;47.830;-3.870;2023-05-17T05:13:07;4.23;;;2.60;;
15915;SDS011;8057;47.830;-3.870;2023-05-17T05:17:17;5.00;;;3.33;;
15915;SDS011;8057;47.830;-3.870;2023-05-17T05:21:27;4.50;;;3.20;;
15915;SDS011;8057;47.830;-3.870;2023-05-17T05:25:37;5.20;;;3.57;;
15915;SDS011;8057;47.830;-3.870;2023-05-17T05:29:46;6.47;;;3.47;;
15915;SDS011;8057;47.830;-3.870;2023-05-17T05:33:56;4.23;;;2.77;;
15915;SDS011;8057;47.830;-3.870;2023-05-17T05:38:06;5.60;;;3.27;;
15915;SDS011;8057;47.830;-3.870;2023-05-17T05:42:15;4.17;;;3.00;;
15915;SDS011;8057;47.830;-3.870;2023-05-17T05:46:24;6.07;;;3.83;;
15915;SDS011;8057;47.830;-3.870;2023-05-17T05:50:34;6.63;;;3.00;;
15915;SDS011;8057;47.830;-3.870;2023-05-17T05:54:45;4.23;;;2.90;;
15915;SDS011;8057;47.830;-3.870;2023-05-17T05:58:54;3.27;;;2.77;;
15915;SDS011;8057;47.830;-3.870;2023-05-17T06:03:03;3.53;;;2.20;;
15915;SDS011;8057;47.830;-3.870;2023-05-17T06:07:13;4.13;;;2.80;;
15915;SDS011;8057;47.830;-3.870;2023-05-17T06:11:24;5.33;;;3.03;;
15915;SDS011;8057;47.830;-3.870;2023-05-17T06:15:33;5.50;;;3.23;;
15915;SDS011;8057;47.830;-3.870;2023-05-17T06:19:42;5.50;;;3.20;;
15915;SDS011;8057;47.830;-3.870;2023-05-17T06:23:51;4.67;;;2.90;;
15915;SDS011;8057;47.830;-3.870;2023-05-17T06:28:02;4.50;;;2.90;;
15915;SDS011;8057;47.830;-3.870;2023-05-17T06:32:14;4.73;;;2.90;;
15915;SDS011;8057;47.830;-3.870;2023-05-17T06:36:23;4.33;;;2.20;;
15915;SDS011;8057;47.830;-3.870;2023-05-17T06:40:32;6.17;;;2.90;;
15915;SDS011;8057;47.830;-3.870;2023-05-17T06:44:43;5.03;;;2.47;;
15915;SDS011;8057;47.830;-3.870;2023-05-17T06:48:52;4.10;;;2.50;;
15915;SDS011;8057;47.830;-3.870;2023-05-17T06:53:02;4.47;;;2.47;;
15915;SDS011;8057;47.830;-3.870;2023-05-17T06:57:12;6.17;;;2.50;;
15915;SDS011;8057;47.830;-3.870;2023-05-17T07:01:22;7.43;;;2.50;;
15915;SDS011;8057;47.830;-3.870;2023-05-17T07:05:31;7.60;;;2.47;;
15915;SDS011;8057;47.830;-3.870;2023-05-17T07:09:41;2.80;;;2.50;;
15915;SDS011;8057;47.830;-3.870;2023-05-17T07:13:50;2.37;;;2.10;;
15915;SDS011;8057;47.830;-3.870;2023-05-17T07:18:01;12.90;;;8.57;;
15915;SDS011;8057;47.830;-3.870;2023-05-17T07:22:10;6.13;;;3.37;;
15915;SDS011;8057;47.830;-3.870;2023-05-17T07:26:20;4.67;;;2.20;;
15915;SDS011;8057;47.830;-3.870;2023-05-17T07:30:29;4.63;;;2.70;;
15915;SDS011;8057;47.830;-3.870;2023-05-17T07:34:40;6.27;;;2.40;;
15915;SDS011;8057;47.830;-3.870;2023-05-17T07:38:49;2.93;;;2.27;;
15915;SDS011;8057;47.830;-3.870;2023-05-17T07:42:58;4.97;;;2.00;;
15915;SDS011;8057;47.830;-3.870;2023-05-17T07:47:07;3.90;;;2.17;;
15915;SDS011;8057;47.830;-3.870;2023-05-17T07:51:19;3.37;;;1.97;;
15915;SDS011;8057;47.830;-3.870;2023-05-17T07:55:28;2.47;;;1.50;;
15915;SDS011;8057;47.830;-3.870;2023-05-17T07:59:37;2.10;;;1.37;;
15915;SDS011;8057;47.830;-3.870;2023-05-17T08:03:48;1.90;;;1.20;;
15915;SDS011;8057;47.830;-3.870;2023-05-17T08:07:59;3.87;;;2.00;;
15915;SDS011;8057;47.830;-3.870;2023-05-17T08:12:08;2.80;;;1.83;;
15915;SDS011;8057;47.830;-3.870;2023-05-17T08:16:17;3.17;;;1.40;;
15915;SDS011;8057;47.830;-3.870;2023-05-17T08:20:26;3.00;;;1.47;;
15915;SDS011;8057;47.830;-3.870;2023-05-17T08:24:37;2.87;;;2.00;;
15915;SDS011;8057;47.830;-3.870;2023-05-17T08:28:50;1.73;;;1.37;;
15915;SDS011;8057;47.830;-3.870;2023-05-17T08:33:00;2.80;;;1.63;;
15915;SDS011;8057;47.830;-3.870;2023-05-17T08:37:09;2.60;;;1.63;;
15915;SDS011;8057;47.830;-3.870;2023-05-17T08:41:20;3.40;;;1.30;;
15915;SDS011;8057;47.830;-3.870;2023-05-17T08:45:30;2.50;;;1.60;;
15915;SDS011;8057;47.830;-3.870;2023-05-17T08:49:39;4.07;;;1.93;;
15915;SDS011;8057;47.830;-3.870;2023-05-17T08:53:51;1.67;;;1.30;;
15915;SDS011;8057;47.830;-3.870;2023-05-17T08:58:01;2.27;;;1.60;;
15915;SDS011;8057;47.830;-3.870;2023-05-17T09:02:12;2.17;;;1.80;;
15915;SDS011;8057;47.830;-3.870;2023-05-17T09:06:22;2.90;;;1.47;;
15915;SDS011;8057;47.830;-3.870;2023-05-17T09:10:32;2.97;;;1.90;;
15915;SDS011;8057;47.830;-3.870;2023-05-17T09:14:43;2.57;;;1.53;;
15915;SDS011;8057;47.830;-3.870;2023-05-17T09:18:52;5.40;;;1.80;;
15915;SDS011;8057;47.830;-3.870;2023-05-17T09:23:02;2.30;;;1.73;;
15915;SDS011;8057;47.830;-3.870;2023-05-17T09:27:13;3.63;;;1.80;;
15915;SDS011;8057;47.830;-3.870;2023-05-17T09:31:26;3.83;;;1.70;;
15915;SDS011;8057;47.830;-3.870;2023-05-17T09:36:08;6.27;;;2.20;;
15915;SDS011;8057;47.830;-3.870;2023-05-17T10:08:38;4.67;;;2.20;;
15915;SDS011;8057;47.830;-3.870;2023-05-17T10:13:44;3.80;;;1.77;;
15915;SDS011;8057;47.830;-3.870;2023-05-17T10:18:19;3.33;;;1.70;;
15915;SDS011;8057;47.830;-3.870;2023-05-17T10:22:38;2.93;;;1.50;;
15915;SDS011;8057;47.830;-3.870;2023-05-17T10:26:56;4.20;;;1.70;;
15915;SDS011;8057;47.830;-3.870;2023-05-17T10:31:06;2.80;;;1.50;;
15915;SDS011;8057;47.830;-3.870;2023-05-17T10:35:16;3.63;;;1.50;;
15915;SDS011;8057;47.830;-3.870;2023-05-17T10:39:26;5.30;;;2.80;;
15915;SDS011;8057;47.830;-3.870;2023-05-17T10:43:46;3.73;;;1.73;;
15915;SDS011;8057;47.830;-3.870;2023-05-17T10:47:56;1.83;;;1.50;;
15915;SDS011;8057;47.830;-3.870;2023-05-17T10:57:02;2.47;;;1.40;;
15915;SDS011;8057;47.830;-3.870;2023-05-17T11:39:37;3.20;;;1.67;;
15915;SDS011;8057;47.830;-3.870;2023-05-17T11:44:27;2.00;;;1.50;;
15915;SDS011;8057;47.830;-3.870;2023-05-17T11:49:07;3.00;;;1.30;;
15915;SDS011;8057;47.830;-3.870;2023-05-17T11:53:33;2.53;;;1.40;;
15915;SDS011;8057;47.830;-3.870;2023-05-17T11:57:46;4.77;;;1.50;;
15915;SDS011;8057;47.830;-3.870;2023-05-17T12:01:59;11.73;;;2.27;;
15915;SDS011;8057;47.830;-3.870;2023-05-17T12:06:18;4.23;;;1.63;;
15915;SDS011;8057;47.830;-3.870;2023-05-17T12:10:30;2.17;;;1.27;;
15915;SDS011;8057;47.830;-3.870;2023-05-17T12:14:41;4.90;;;2.57;;
15915;SDS011;8057;47.830;-3.870;2023-05-17T12:18:52;3.77;;;1.93;;
15915;SDS011;8057;47.830;-3.870;2023-05-17T12:23:03;3.17;;;1.60;;
15915;SDS011;8057;47.830;-3.870;2023-05-17T12:27:14;2.77;;;1.33;;
15915;SDS011;8057;47.830;-3.870;2023-05-17T12:31:34;2.70;;;1.50;;
15915;SDS011;8057;47.830;-3.870;2023-05-17T12:35:46;4.17;;;1.40;;
15915;SDS011;8057;47.830;-3.870;2023-05-17T12:39:58;3.27;;;1.90;;
15915;SDS011;8057;47.830;-3.870;2023-05-17T12:44:23;3.40;;;1.43;;
15915;SDS011;8057;47.830;-3.870;2023-05-17T12:48:48;3.30;;;1.40;;
15915;SDS011;8057;47.830;-3.870;2023-05-17T12:53:33;3.70;;;1.70;;
15915;SDS011;8057;47.830;-3.870;2023-05-17T15:12:01;4.10;;;3.00;;
15915;SDS011;8057;47.830;-3.870;2023-05-17T15:16:38;7.07;;;2.93;;
15915;SDS011;8057;47.830;-3.870;2023-05-17T15:20:48;5.40;;;2.77;;
15915;SDS011;8057;47.830;-3.870;2023-05-17T15:24:59;3.87;;;2.90;;
15915;SDS011;8057;47.830;-3.870;2023-05-17T15:29:09;4.37;;;3.40;;
15915;SDS011;8057;47.830;-3.870;2023-05-17T15:33:19;5.77;;;3.43;;
15915;SDS011;8057;47.830;-3.870;2023-05-17T15:37:34;5.63;;;3.97;;
15915;SDS011;8057;47.830;-3.870;2023-05-17T15:51:54;6.03;;;4.90;;
15915;SDS011;8057;47.830;-3.870;2023-05-17T15:56:34;6.70;;;5.57;;
15915;SDS011;8057;47.830;-3.870;2023-05-17T16:00:44;7.37;;;5.60;;
15915;SDS011;8057;47.830;-3.870;2023-05-17T16:04:55;5.53;;;5.03;;
15915;SDS011;8057;47.830;-3.870;2023-05-17T16:09:08;7.27;;;5.60;;
15915;SDS011;8057;47.830;-3.870;2023-05-17T16:13:18;5.57;;;4.80;;
15915;SDS011;8057;47.830;-3.870;2023-05-17T16:17:27;5.83;;;4.57;;
15915;SDS011;8057;47.830;-3.870;2023-05-17T16:21:38;5.60;;;4.83;;
15915;SDS011;8057;47.830;-3.870;2023-05-17T16:25:47;7.37;;;5.60;;
15915;SDS011;8057;47.830;-3.870;2023-05-17T16:29:56;6.97;;;5.07;;
15915;SDS011;8057;47.830;-3.870;2023-05-17T16:34:05;5.83;;;4.67;;
15915;SDS011;8057;47.830;-3.870;2023-05-17T16:38:15;5.90;;;5.30;;
15915;SDS011;8057;47.830;-3.870;2023-05-17T16:42:25;5.50;;;4.90;;
15915;SDS011;8057;47.830;-3.870;2023-05-17T16:46:35;7.07;;;5.20;;
15915;SDS011;8057;47.830;-3.870;2023-05-17T16:50:44;5.60;;;5.00;;
15915;SDS011;8057;47.830;-3.870;2023-05-17T16:54:56;6.03;;;5.27;;
15915;SDS011;8057;47.830;-3.870;2023-05-17T16:59:09;6.13;;;5.00;;
15915;SDS011;8057;47.830;-3.870;2023-05-17T17:03:18;5.30;;;4.73;;
15915;SDS011;8057;47.830;-3.870;2023-05-17T17:07:28;5.40;;;4.73;;
15915;SDS011;8057;47.830;-3.870;2023-05-17T17:11:39;7.30;;;5.13;;
15915;SDS011;8057;47.830;-3.870;2023-05-17T17:15:48;5.93;;;4.77;;
15915;SDS011;8057;47.830;-3.870;2023-05-17T17:19:58;8.17;;;5.13;;
15915;SDS011;8057;47.830;-3.870;2023-05-17T17:24:07;6.07;;;5.47;;
15915;SDS011;8057;47.830;-3.870;2023-05-17T17:28:18;7.03;;;6.00;;
15915;SDS011;8057;47.830;-3.870;2023-05-17T17:32:27;8.07;;;5.67;;
15915;SDS011;8057;47.830;-3.870;2023-05-17T17:36:36;7.97;;;5.00;;
15915;SDS011;8057;47.830;-3.870;2023-05-17T17:40:45;6.97;;;4.93;;
15915;SDS011;8057;47.830;-3.870;2023-05-17T17:44:56;5.67;;;4.40;;
15915;SDS011;8057;47.830;-3.870;2023-05-17T17:49:05;5.47;;;4.83;;
15915;SDS011;8057;47.830;-3.870;2023-05-17T17:53:15;6.63;;;4.87;;
15915;SDS011;8057;47.830;-3.870;2023-05-17T17:57:25;5.43;;;4.93;;
15915;SDS011;8057;47.830;-3.870;2023-05-17T18:01:36;5.10;;;4.53;;
15915;SDS011;8057;47.830;-3.870;2023-05-17T18:05:45;7.30;;;5.10;;
15915;SDS011;8057;47.830;-3.870;2023-05-17T18:09:54;6.90;;;5.00;;
15915;SDS011;8057;47.830;-3.870;2023-05-17T18:14:04;7.03;;;4.93;;
15915;SDS011;8057;47.830;-3.870;2023-05-17T18:18:15;7.03;;;5.10;;
15915;SDS011;8057;47.830;-3.870;2023-05-17T18:22:24;5.77;;;5.00;;
15915;SDS011;8057;47.830;-3.870;2023-05-17T18:26:33;5.37;;;4.80;;
15915;SDS011;8057;47.830;-3.870;2023-05-17T18:30:42;7.10;;;5.00;;
15915;SDS011;8057;47.830;-3.870;2023-05-17T18:34:53;5.63;;;4.97;;
15915;SDS011;8057;47.830;-3.870;2023-05-17T18:39:02;6.67;;;4.93;;
15915;SDS011;8057;47.830;-3.870;2023-05-17T18:43:11;8.17;;;5.10;;
15915;SDS011;8057;47.830;-3.870;2023-05-17T18:47:20;6.83;;;5.20;;
15915;SDS011;8057;47.830;-3.870;2023-05-17T18:51:32;7.00;;;5.47;;
15915;SDS011;8057;47.830;-3.870;2023-05-17T18:55:41;5.67;;;4.90;;
15915;SDS011;8057;47.830;-3.870;2023-05-17T18:59:55;5.83;;;5.03;;
15915;SDS011;8057;47.830;-3.870;2023-05-17T19:04:33;6.87;;;5.13;;
15915;SDS011;8057;47.830;-3.870;2023-05-17T19:40:02;7.40;;;5.40;;
15915;SDS011;8057;47.830;-3.870;2023-05-17T19:44:13;7.07;;;5.17;;
15915;SDS011;8057;47.830;-3.870;2023-05-17T19:48:22;7.77;;;5.20;;
15915;SDS011;8057;47.830;-3.870;2023-05-17T19:52:42;6.63;;;5.37;;
15915;SDS011;8057;47.830;-3.870;2023-05-17T19:56:52;5.20;;;4.70;;
15915;SDS011;8057;47.830;-3.870;2023-05-17T20:01:01;8.07;;;5.23;;
15915;SDS011;8057;47.830;-3.870;2023-05-17T20:05:11;5.97;;;5.37;;
15915;SDS011;8057;47.830;-3.870;2023-05-17T20:09:32;6.67;;;5.10;;
15915;SDS011;8057;47.830;-3.870;2023-05-17T20:13:42;6.67;;;5.30;;
15915;SDS011;8057;47.830;-3.870;2023-05-17T20:17:51;6.50;;;4.73;;
15915;SDS011;8057;47.830;-3.870;2023-05-17T20:22:01;8.93;;;4.87;;
15915;SDS011;8057;47.830;-3.870;2023-05-17T20:26:12;6.27;;;4.63;;
15915;SDS011;8057;47.830;-3.870;2023-05-17T20:30:31;7.00;;;4.53;;
15915;SDS011;8057;47.830;-3.870;2023-05-17T20:34:40;5.37;;;4.87;;
15915;SDS011;8057;47.830;-3.870;2023-05-17T20:38:51;6.90;;;4.77;;
15915;SDS011;8057;47.830;-3.870;2023-05-17T20:43:04;6.27;;;4.63;;
15915;SDS011;8057;47.830;-3.870;2023-05-17T20:47:15;6.47;;;4.47;;
15915;SDS011;8057;47.830;-3.870;2023-05-17T20:51:24;5.37;;;4.40;;
15915;SDS011;8057;47.830;-3.870;2023-05-17T20:55:34;7.57;;;4.87;;
15915;SDS011;8057;47.830;-3.870;2023-05-17T20:59:45;4.87;;;4.30;;
15915;SDS011;8057;47.830;-3.870;2023-05-17T21:03:54;4.83;;;3.87;;
15915;SDS011;8057;47.830;-3.870;2023-05-17T21:08:04;4.70;;;4.17;;
15915;SDS011;8057;47.830;-3.870;2023-05-17T21:12:14;6.37;;;4.63;;
15915;SDS011;8057;47.830;-3.870;2023-05-17T21:16:25;5.90;;;4.23;;
15915;SDS011;8057;47.830;-3.870;2023-05-17T21:20:35;6.53;;;4.90;;
15915;SDS011;8057;47.830;-3.870;2023-05-17T21:24:44;4.87;;;3.80;;
15915;SDS011;8057;47.830;-3.870;2023-05-17T21:28:56;4.83;;;4.07;;
15915;SDS011;8057;47.830;-3.870;2023-05-17T21:33:07;5.80;;;4.03;;
15915;SDS011;8057;47.830;-3.870;2023-05-17T21:37:16;6.03;;;4.33;;
15915;SDS011;8057;47.830;-3.870;2023-05-17T21:41:26;5.30;;;4.57;;
15915;SDS011;8057;47.830;-3.870;2023-05-17T21:45:35;7.07;;;5.10;;
15915;SDS011;8057;47.830;-3.870;2023-05-17T21:49:46;7.03;;;5.53;;
15915;SDS011;8057;47.830;-3.870;2023-05-17T21:53:55;8.63;;;5.27;;
15915;SDS011;8057;47.830;-3.870;2023-05-17T21:58:04;7.17;;;5.10;;
15915;SDS011;8057;47.830;-3.870;2023-05-17T22:02:14;9.70;;;6.40;;
15915;SDS011;8057;47.830;-3.870;2023-05-17T22:06:25;8.60;;;5.73;;
15915;SDS011;8057;47.830;-3.870;2023-05-17T22:10:34;9.00;;;6.30;;
15915;SDS011;8057;47.830;-3.870;2023-05-17T22:14:46;6.93;;;5.80;;
15915;SDS011;8057;47.830;-3.870;2023-05-17T22:18:56;9.13;;;5.80;;
15915;SDS011;8057;47.830;-3.870;2023-05-17T22:23:07;8.27;;;5.57;;
15915;SDS011;8057;47.830;-3.870;2023-05-17T22:27:17;9.20;;;6.10;;
15915;SDS011;8057;47.830;-3.870;2023-05-17T22:31:26;7.90;;;5.70;;
15915;SDS011;8057;47.830;-3.870;2023-05-17T22:35:35;6.60;;;5.50;;
15915;SDS011;8057;47.830;-3.870;2023-05-17T22:39:48;8.27;;;6.10;;
15915;SDS011;8057;47.830;-3.870;2023-05-17T22:43:57;11.90;;;6.13;;
15915;SDS011;8057;47.830;-3.870;2023-05-17T22:48:07;8.37;;;5.80;;
15915;SDS011;8057;47.830;-3.870;2023-05-17T22:52:16;8.63;;;6.27;;
15915;SDS011;8057;47.830;-3.870;2023-05-17T22:56:27;8.70;;;6.17;;
15915;SDS011;8057;47.830;-3.870;2023-05-17T23:00:37;7.93;;;6.17;;
15915;SDS011;8057;47.830;-3.870;2023-05-17T23:04:46;7.87;;;6.97;;
15915;SDS011;8057;47.830;-3.870;2023-05-17T23:08:55;10.17;;;6.97;;
15915;SDS011;8057;47.830;-3.870;2023-05-17T23:13:07;9.33;;;6.80;;
15915;SDS011;8057;47.830;-3.870;2023-05-17T23:17:16;9.50;;;6.53;;
15915;SDS011;8057;47.830;-3.870;2023-05-17T23:21:25;9.47;;;6.90;;
15915;SDS011;8057;47.830;-3.870;2023-05-17T23:25:38;7.93;;;6.23;;
15915;SDS011;8057;47.830;-3.870;2023-05-17T23:29:49;9.30;;;6.37;;
15915;SDS011;8057;47.830;-3.870;2023-05-17T23:34:01;9.70;;;5.87;;
15915;SDS011;8057;47.830;-3.870;2023-05-17T23:38:10;9.63;;;7.07;;
15915;SDS011;8057;47.830;-3.870;2023-05-17T23:42:19;9.83;;;6.53;;
15915;SDS011;8057;47.830;-3.870;2023-05-17T23:46:30;7.50;;;5.73;;
15915;SDS011;8057;47.830;-3.870;2023-05-17T23:50:40;10.13;;;6.50;;
15915;SDS011;8057;47.830;-3.870;2023-05-17T23:54:49;9.63;;;6.40;;
15915;SDS011;8057;47.830;-3.870;2023-05-17T23:59:03;10.03;;;6.00;;
